createdAt,value
2022-10-16T00:00:15.161Z,9.63
2022-10-16T00:02:49.491Z,8.82
2022-10-16T00:05:26.868Z,9.27
2022-10-16T00:07:59.157Z,9.43
2022-10-16T00:10:34.396Z,10.05
2022-10-16T00:13:06.363Z,8.60
2022-10-16T00:15:44.202Z,10.02
2022-10-16T00:18:21.873Z,9.88
2022-10-16T00:21:08.219Z,9.90
2022-10-16T00:23:48.974Z,9.48
2022-10-16T00:26:24.716Z,10.68
2022-10-16T00:28:56.759Z,9.95
2022-10-16T00:31:26.695Z,11.25
2022-10-16T00:34:00.421Z,10.65
2022-10-16T00:39:10.565Z,11.90
2022-10-16T00:41:43.018Z,11.88
2022-10-16T00:44:50.776Z,11.70
2022-10-16T00:47:48.233Z,11.25
2022-10-16T00:50:46.442Z,11.80
2022-10-16T00:53:23.005Z,12.25
2022-10-16T00:55:55.109Z,12.43
2022-10-16T00:58:22.389Z,11.82
2022-10-16T01:00:59.937Z,11.57
2022-10-16T01:03:42.145Z,11.15
2022-10-16T01:06:20.875Z,10.60
2022-10-16T01:09:12.223Z,11.18
2022-10-16T01:11:58.414Z,10.73
2022-10-16T01:14:54.977Z,9.60
2022-10-16T01:17:39.229Z,10.32
2022-10-16T01:20:28.875Z,10.32
2022-10-16T01:23:26.324Z,9.98
2022-10-16T01:26:20.902Z,10.13
2022-10-16T01:29:07.217Z,10.32
2022-10-16T01:31:50.899Z,10.80
2022-10-16T01:34:37.467Z,11.15
2022-10-16T01:37:26.819Z,11.10
2022-10-16T01:40:05.063Z,11.40
2022-10-16T01:45:43.510Z,10.52
2022-10-16T01:48:26.637Z,11.85
2022-10-16T01:51:16.491Z,11.37
2022-10-16T01:53:57.654Z,10.55
2022-10-16T01:56:36.898Z,11.63
2022-10-16T01:59:22.264Z,11.02
2022-10-16T02:02:07.014Z,11.35
2022-10-16T02:04:47.259Z,11.63
2022-10-16T02:07:19.745Z,12.25
2022-10-16T02:09:56.888Z,11.55
2022-10-16T02:12:50.430Z,11.55
2022-10-16T02:15:22.564Z,12.00
2022-10-16T02:17:51.782Z,12.82
2022-10-16T02:20:33.425Z,12.10
2022-10-16T02:23:04.432Z,12.73
2022-10-16T02:25:41.133Z,13.02
2022-10-16T02:28:23.194Z,13.50
2022-10-16T02:31:06.766Z,12.05
2022-10-16T02:33:41.701Z,13.20
2022-10-16T02:36:17.334Z,11.60
2022-10-16T02:38:49.043Z,13.35
2022-10-16T02:41:27.670Z,14.50
2022-10-16T02:44:04.964Z,12.68
2022-10-16T02:46:37.622Z,13.10
2022-10-16T02:49:09.664Z,12.70
2022-10-16T02:51:47.594Z,12.70
2022-10-16T02:54:25.122Z,13.32
2022-10-16T02:57:02.883Z,13.25
2022-10-16T02:59:37.656Z,14.18
2022-10-16T03:02:18.583Z,15.10
2022-10-16T03:04:56.250Z,14.20
2022-10-16T03:07:28.348Z,15.13
2022-10-16T03:10:03.347Z,14.98
2022-10-16T03:12:46.333Z,14.18
2022-10-16T03:15:26.993Z,15.85
2022-10-16T03:18:01.632Z,14.77
2022-10-16T03:20:33.577Z,14.23
2022-10-16T03:23:05.875Z,14.45
2022-10-16T03:25:46.450Z,14.07
2022-10-16T03:28:28.636Z,13.82
2022-10-16T03:31:09.264Z,14.18
2022-10-16T03:33:44.414Z,14.35
2022-10-16T03:36:24.515Z,13.65
2022-10-16T03:38:52.004Z,13.10
2022-10-16T03:41:24.017Z,14.35
2022-10-16T03:43:59.380Z,13.80
2022-10-16T03:46:36.516Z,13.10
2022-10-16T03:49:11.785Z,13.55
2022-10-16T03:51:46.921Z,13.88
2022-10-16T03:54:27.242Z,12.63
2022-10-16T03:57:07.631Z,13.20
2022-10-16T03:59:42.221Z,14.10
2022-10-16T04:02:19.584Z,13.00
2022-10-16T04:04:55.002Z,12.55
2022-10-16T04:07:27.731Z,13.18
2022-10-16T04:09:59.850Z,13.77
2022-10-16T04:12:37.383Z,14.18
2022-10-16T04:15:12.687Z,13.95
2022-10-16T04:17:47.990Z,14.23
2022-10-16T04:20:17.872Z,15.20
2022-10-16T04:22:52.729Z,14.23
2022-10-16T04:25:27.750Z,16.13
2022-10-16T04:28:06.126Z,16.75
2022-10-16T04:30:39.864Z,16.48
2022-10-16T04:36:02.579Z,18.40
2022-10-16T04:38:40.651Z,19.45
2022-10-16T04:41:15.848Z,22.10
2022-10-16T04:43:53.234Z,22.70
2022-10-16T04:46:33.657Z,26.10
2022-10-16T04:49:10.483Z,23.95
2022-10-16T04:51:37.469Z,23.88
2022-10-16T04:54:18.219Z,21.88
2022-10-16T04:56:53.301Z,20.13
2022-10-16T04:59:26.590Z,19.60
2022-10-16T05:02:07.933Z,20.55
2022-10-16T05:04:42.976Z,19.20
2022-10-16T05:07:20.847Z,21.13
2022-10-16T05:09:58.749Z,20.15
2022-10-16T05:12:35.699Z,21.85
2022-10-16T05:15:13.564Z,21.17
2022-10-16T05:17:51.439Z,20.83
2022-10-16T05:20:32.414Z,21.17
2022-10-16T05:23:16.120Z,22.98
2022-10-16T05:25:59.208Z,21.27
2022-10-16T05:28:32.902Z,24.95
2022-10-16T05:31:08.826Z,24.13
2022-10-16T05:33:45.126Z,23.88
2022-10-16T05:36:25.031Z,26.60
2022-10-16T05:39:00.129Z,31.63
2022-10-16T05:41:35.787Z,32.00
2022-10-16T05:44:12.367Z,28.23
2022-10-16T05:46:47.413Z,28.88
2022-10-16T05:49:22.388Z,27.73
2022-10-16T05:51:54.625Z,27.75
2022-10-16T05:54:31.839Z,28.30
2022-10-16T05:57:06.616Z,29.60
2022-10-16T05:59:44.552Z,27.05
2022-10-16T06:02:25.907Z,31.55
2022-10-16T06:04:55.805Z,29.50
2022-10-16T06:07:33.345Z,28.30
2022-10-16T06:10:08.089Z,25.00
2022-10-16T06:12:46.000Z,23.98
2022-10-16T06:15:21.467Z,22.42
2022-10-16T06:17:51.479Z,21.35
2022-10-16T06:20:32.556Z,18.20
2022-10-16T06:23:02.224Z,15.05
2022-10-16T06:25:40.715Z,14.52
2022-10-16T06:28:12.545Z,14.23
2022-10-16T06:30:44.810Z,13.80
2022-10-16T06:33:16.870Z,12.60
2022-10-16T06:35:49.572Z,13.68
2022-10-16T06:38:26.956Z,11.75
2022-10-16T06:41:13.306Z,12.52
2022-10-16T06:43:48.924Z,13.32
2022-10-16T06:46:27.199Z,12.30
2022-10-16T06:49:04.969Z,11.93
2022-10-16T06:51:43.249Z,13.00
2022-10-16T06:54:18.893Z,12.73
2022-10-16T06:56:54.230Z,11.82
2022-10-16T06:59:28.522Z,11.73
2022-10-16T07:02:06.541Z,11.07
2022-10-16T07:04:41.887Z,10.40
2022-10-16T07:07:17.975Z,11.23
2022-10-16T07:10:01.110Z,10.70
2022-10-16T07:12:30.740Z,10.25
2022-10-16T07:15:00.532Z,9.85
2022-10-16T07:17:35.756Z,11.18
2022-10-16T07:20:11.332Z,10.25
2022-10-16T07:22:46.818Z,10.70
2022-10-16T07:25:28.052Z,9.95
2022-10-16T07:27:59.821Z,9.48
2022-10-16T07:30:32.507Z,10.50
2022-10-16T07:33:10.134Z,9.57
2022-10-16T07:35:56.074Z,10.40
2022-10-16T07:38:31.386Z,9.63
2022-10-16T07:41:14.672Z,10.50
2022-10-16T07:44:02.108Z,9.50
2022-10-16T07:46:36.913Z,10.23
2022-10-16T07:49:12.767Z,10.75
2022-10-16T07:51:50.415Z,10.55
2022-10-16T07:54:27.731Z,10.63
2022-10-16T07:57:03.407Z,9.70
2022-10-16T07:59:34.863Z,9.93
2022-10-16T08:02:06.998Z,10.73
2022-10-16T08:04:42.567Z,9.88
2022-10-16T08:07:17.798Z,10.18
2022-10-16T08:10:00.968Z,10.35
2022-10-16T08:12:36.384Z,10.23
2022-10-16T08:15:15.367Z,9.88
2022-10-16T08:18:00.685Z,9.40
2022-10-16T08:20:35.650Z,9.85
2022-10-16T08:23:15.076Z,9.55
2022-10-16T08:25:47.831Z,10.45
2022-10-16T08:28:23.010Z,9.73
2022-10-16T08:30:54.565Z,8.57
2022-10-16T08:33:29.407Z,9.30
2022-10-16T08:36:05.301Z,8.68
2022-10-16T08:38:52.152Z,10.23
2022-10-16T08:42:14.361Z,9.43
2022-10-16T08:45:20.924Z,9.48
2022-10-16T08:48:26.994Z,9.25
2022-10-16T08:50:57.539Z,9.82
2022-10-16T08:53:31.133Z,9.55
2022-10-16T08:56:17.763Z,8.73
2022-10-16T08:58:59.986Z,8.65
2022-10-16T09:01:50.946Z,8.43
2022-10-16T09:05:04.558Z,8.77
2022-10-16T09:07:49.318Z,8.80
2022-10-16T09:10:40.150Z,8.63
2022-10-16T09:13:24.671Z,9.38
2022-10-16T09:16:05.556Z,8.50
2022-10-16T09:18:58.086Z,9.23
2022-10-16T09:21:49.612Z,10.05
2022-10-16T09:24:29.369Z,8.60
2022-10-16T09:27:07.656Z,9.55
2022-10-16T09:29:42.412Z,9.02
2022-10-16T09:32:16.146Z,9.27
2022-10-16T09:37:34.984Z,8.60
2022-10-16T09:40:36.489Z,7.25
2022-10-16T09:43:21.157Z,8.13
2022-10-16T09:46:29.056Z,7.07
2022-10-16T09:49:05.735Z,6.95
2022-10-16T09:51:38.135Z,7.97
2022-10-16T09:54:12.948Z,7.72
2022-10-16T09:56:53.027Z,8.20
2022-10-16T09:59:30.651Z,7.28
2022-10-16T10:02:06.865Z,7.53
2022-10-16T10:04:52.609Z,7.40
2022-10-16T10:07:28.867Z,7.32
2022-10-16T10:10:09.087Z,7.35
2022-10-16T10:12:49.533Z,7.38
2022-10-16T10:15:24.656Z,6.75
2022-10-16T10:18:09.066Z,7.35
2022-10-16T10:20:39.829Z,7.57
2022-10-16T10:23:33.061Z,6.53
2022-10-16T10:26:17.721Z,7.32
2022-10-16T10:29:09.175Z,7.22
2022-10-16T10:32:17.353Z,6.63
2022-10-16T10:35:19.981Z,6.50
2022-10-16T10:38:15.538Z,7.05
2022-10-16T10:41:07.493Z,6.57
2022-10-16T10:44:11.662Z,7.30
2022-10-16T10:47:12.605Z,6.78
2022-10-16T10:49:49.135Z,6.05
2022-10-16T10:52:59.219Z,6.65
2022-10-16T10:55:46.749Z,7.63
2022-10-16T10:58:43.277Z,7.45
2022-10-16T11:01:36.337Z,6.82
2022-10-16T11:04:33.930Z,7.30
2022-10-16T11:07:15.390Z,7.03
2022-10-16T11:09:59.614Z,6.30
2022-10-16T11:12:48.389Z,6.85
2022-10-16T11:15:38.724Z,6.55
2022-10-16T11:18:22.661Z,5.97
2022-10-16T11:20:57.342Z,6.35
2022-10-16T11:23:45.898Z,5.90
2022-10-16T11:26:26.485Z,6.35
2022-10-16T11:29:04.467Z,5.80
2022-10-16T11:31:48.937Z,5.75
2022-10-16T11:34:30.780Z,5.80
2022-10-16T11:37:45.987Z,6.07
2022-10-16T11:40:34.376Z,5.95
2022-10-16T11:43:27.155Z,5.75
2022-10-16T11:46:10.046Z,6.25
2022-10-16T11:48:51.971Z,6.10
2022-10-16T11:51:42.031Z,5.78
2022-10-16T11:54:43.407Z,5.55
2022-10-16T11:57:22.113Z,5.95
2022-10-16T12:00:09.394Z,5.88
2022-10-16T12:03:06.760Z,5.95
2022-10-16T12:05:56.443Z,5.43
2022-10-16T12:08:29.433Z,5.78
2022-10-16T12:11:23.321Z,6.25
2022-10-16T12:14:10.888Z,5.85
2022-10-16T12:17:00.674Z,5.68
2022-10-16T12:19:36.499Z,5.53
2022-10-16T12:22:27.170Z,5.78
2022-10-16T12:25:02.985Z,5.35
2022-10-16T12:27:44.594Z,5.78
2022-10-16T12:30:24.386Z,5.78
2022-10-16T12:33:25.297Z,5.38
2022-10-16T12:35:53.218Z,5.43
2022-10-16T12:38:36.425Z,5.63
2022-10-16T12:41:15.287Z,4.85
2022-10-16T12:43:48.978Z,4.45
2022-10-16T12:49:08.403Z,5.28
2022-10-16T12:51:54.172Z,4.93
2022-10-16T12:54:45.772Z,5.05
2022-10-16T12:57:55.816Z,4.97
2022-10-16T13:00:57.406Z,4.50
2022-10-16T13:03:30.427Z,5.15
2022-10-16T13:06:15.048Z,4.28
2022-10-16T13:08:57.489Z,5.05
2022-10-16T13:11:48.145Z,5.13
2022-10-16T13:14:34.417Z,4.85
2022-10-16T13:17:26.453Z,4.90
2022-10-16T13:21:03.450Z,4.68
2022-10-16T13:23:49.964Z,4.15
2022-10-16T13:26:45.015Z,5.00
2022-10-16T13:29:31.463Z,4.53
2022-10-16T13:32:21.830Z,4.63
2022-10-16T13:35:05.094Z,5.07
2022-10-16T13:37:42.901Z,4.60
2022-10-16T13:40:32.935Z,5.28
2022-10-16T13:43:09.917Z,4.50
2022-10-16T13:45:58.964Z,4.63
2022-10-16T13:48:37.847Z,4.78
2022-10-16T13:53:56.474Z,3.80
2022-10-16T13:56:36.263Z,5.03
2022-10-16T13:59:42.679Z,4.35
2022-10-16T14:02:41.251Z,4.40
2022-10-16T14:05:14.912Z,4.88
2022-10-16T14:10:31.433Z,4.47
2022-10-16T14:13:11.674Z,4.20
2022-10-16T14:15:51.135Z,4.35
2022-10-16T14:18:33.295Z,4.53
2022-10-16T14:23:49.033Z,4.25
2022-10-16T14:26:29.517Z,4.37
2022-10-16T14:29:18.845Z,4.57
2022-10-16T14:32:25.616Z,4.63
2022-10-16T14:35:00.540Z,3.95
2022-10-16T14:37:37.472Z,4.25
2022-10-16T14:40:19.159Z,4.63
2022-10-16T14:42:54.684Z,4.30
2022-10-16T14:45:29.581Z,3.83
2022-10-16T14:48:20.812Z,4.40
2022-10-16T14:50:53.344Z,4.47
2022-10-16T14:53:27.914Z,5.00
2022-10-16T14:56:17.987Z,4.75
2022-10-16T14:58:54.471Z,4.65
2022-10-16T15:01:29.459Z,4.28
2022-10-16T15:04:05.315Z,4.38
2022-10-16T15:06:46.493Z,4.63
2022-10-16T15:09:26.861Z,4.47
2022-10-16T15:12:05.346Z,4.65
2022-10-16T15:14:34.612Z,4.38
2022-10-16T15:17:17.448Z,4.30
2022-10-16T15:19:52.683Z,4.50
2022-10-16T15:22:25.563Z,4.75
2022-10-16T15:25:02.355Z,4.47
2022-10-16T15:27:40.811Z,4.50
2022-10-16T15:30:20.830Z,4.53
2022-10-16T15:32:55.025Z,5.32
2022-10-16T15:35:39.167Z,5.07
2022-10-16T15:38:14.517Z,5.05
2022-10-16T15:40:52.400Z,5.40
2022-10-16T15:43:28.337Z,5.32
2022-10-16T15:46:12.232Z,6.20
2022-10-16T15:48:44.700Z,5.93
2022-10-16T15:51:23.544Z,5.90
2022-10-16T15:54:06.185Z,6.18
2022-10-16T15:56:47.405Z,6.93
2022-10-16T15:59:16.673Z,7.65
2022-10-16T16:01:54.436Z,7.10
2022-10-16T16:04:44.784Z,7.55
2022-10-16T16:07:20.681Z,7.45
2022-10-16T16:10:01.395Z,9.70
2022-10-16T16:12:41.752Z,8.95
2022-10-16T16:15:19.908Z,9.90
2022-10-16T16:17:54.819Z,12.85
2022-10-16T16:20:32.307Z,12.23
2022-10-16T16:23:17.825Z,12.43
2022-10-16T16:25:47.597Z,13.07
2022-10-16T16:28:22.490Z,11.90
2022-10-16T16:30:58.172Z,13.65
2022-10-16T16:33:33.286Z,14.38
2022-10-16T16:36:16.316Z,15.10
2022-10-16T16:38:54.220Z,14.53
2022-10-16T16:41:35.053Z,14.30
2022-10-16T16:44:31.110Z,15.43
2022-10-16T16:47:05.883Z,14.85
2022-10-16T16:49:41.608Z,15.77
2022-10-16T16:52:25.266Z,14.15
2022-10-16T16:55:02.897Z,13.48
2022-10-16T16:57:40.977Z,13.48
2022-10-16T17:00:16.739Z,14.45
2022-10-16T17:03:01.345Z,13.43
2022-10-16T17:05:32.635Z,13.18
2022-10-16T17:08:16.018Z,11.68
2022-10-16T17:10:54.273Z,11.63
2022-10-16T17:13:35.379Z,11.48
2022-10-16T17:16:13.656Z,13.98
2022-10-16T17:18:53.904Z,12.90
2022-10-16T17:21:31.183Z,18.02
2022-10-16T17:24:15.920Z,18.05
2022-10-16T17:26:53.830Z,19.83
2022-10-16T17:29:34.229Z,19.58
2022-10-16T17:32:12.463Z,17.65
2022-10-16T17:34:47.822Z,15.85
2022-10-16T17:37:20.416Z,19.02
2022-10-16T17:39:59.962Z,18.08
2022-10-16T17:42:32.199Z,18.65
2022-10-16T17:45:10.646Z,20.00
2022-10-16T17:47:53.915Z,18.60
2022-10-16T17:50:29.120Z,17.80
2022-10-16T17:53:00.603Z,17.48
2022-10-16T17:55:42.954Z,17.48
2022-10-16T17:58:17.987Z,16.90
2022-10-16T18:00:53.249Z,19.75
2022-10-16T18:03:28.411Z,18.67
2022-10-16T18:06:04.926Z,19.85
2022-10-16T18:08:48.149Z,18.85
2022-10-16T18:11:21.043Z,20.70
2022-10-16T18:14:08.225Z,21.37
2022-10-16T18:16:59.344Z,20.88
2022-10-16T18:19:46.489Z,22.05
2022-10-16T18:22:32.818Z,24.02
2022-10-16T18:25:11.218Z,23.60
2022-10-16T18:27:52.217Z,25.80
2022-10-16T18:30:27.136Z,27.42
2022-10-16T18:33:05.386Z,26.55
2022-10-16T18:35:41.455Z,27.33
2022-10-16T18:38:18.697Z,31.85
2022-10-16T18:40:51.377Z,31.15
2022-10-16T18:43:34.025Z,31.95
2022-10-16T18:46:13.710Z,35.33
2022-10-16T18:48:54.542Z,34.53
2022-10-16T18:51:32.421Z,32.03
2022-10-16T18:54:11.350Z,28.77
2022-10-16T18:56:49.404Z,29.67
2022-10-16T18:59:27.965Z,27.55
2022-10-16T19:02:03.293Z,27.60
2022-10-16T19:04:41.206Z,26.98
2022-10-16T19:07:15.676Z,26.65
2022-10-16T19:10:03.513Z,25.02
2022-10-16T19:12:38.537Z,23.90
2022-10-16T19:15:14.473Z,23.10
2022-10-16T19:17:54.891Z,24.85
2022-10-16T19:20:24.512Z,24.35
2022-10-16T19:23:02.702Z,23.02
2022-10-16T19:25:52.076Z,26.88
2022-10-16T19:28:27.035Z,24.77
2022-10-16T19:31:11.530Z,23.90
2022-10-16T19:34:07.496Z,24.23
2022-10-16T19:36:50.033Z,25.98
2022-10-16T19:39:39.879Z,24.30
2022-10-16T19:42:18.787Z,24.15
2022-10-16T19:45:01.339Z,24.33
2022-10-16T19:47:38.634Z,25.05
2022-10-16T19:50:32.532Z,25.77
2022-10-16T19:53:09.807Z,26.42
2022-10-16T19:55:45.924Z,27.75
2022-10-16T19:58:26.851Z,31.02
2022-10-16T20:00:58.222Z,28.98
2022-10-16T20:03:33.440Z,28.40
2022-10-16T20:06:09.490Z,26.55
2022-10-16T20:08:52.966Z,28.48
2022-10-16T20:11:34.613Z,27.67
2022-10-16T20:14:15.194Z,28.35
2022-10-16T20:16:53.358Z,27.23
2022-10-16T20:19:28.727Z,28.15
2022-10-16T20:21:58.492Z,29.25
2022-10-16T20:24:33.463Z,28.48
2022-10-16T20:27:08.386Z,28.63
2022-10-16T20:29:51.325Z,27.98
2022-10-16T20:32:23.191Z,27.40
2022-10-16T20:35:04.357Z,28.65
2022-10-16T20:40:12.498Z,28.80
2022-10-16T20:42:42.557Z,29.55
2022-10-16T20:45:22.249Z,29.58
2022-10-16T20:47:54.124Z,34.17
2022-10-16T20:50:28.358Z,29.45
2022-10-16T20:53:01.667Z,28.92
2022-10-16T20:55:38.192Z,27.42
2022-10-16T20:58:18.105Z,28.35
2022-10-16T21:00:58.961Z,28.35
2022-10-16T21:03:40.088Z,27.08
2022-10-16T21:06:18.514Z,28.10
2022-10-16T21:08:48.387Z,27.15
2022-10-16T21:14:10.834Z,26.30
2022-10-16T21:16:46.481Z,26.95
2022-10-16T21:19:24.261Z,26.08
2022-10-16T21:22:01.583Z,26.92
2022-10-16T21:24:40.177Z,26.35
2022-10-16T21:27:20.187Z,26.15
2022-10-16T21:32:41.206Z,25.45
2022-10-16T21:35:09.122Z,24.52
2022-10-16T21:37:51.046Z,25.73
2022-10-16T21:40:33.983Z,25.90
2022-10-16T21:43:11.807Z,24.92
2022-10-16T21:45:46.983Z,23.77
2022-10-16T21:48:29.657Z,23.58
2022-10-16T21:51:13.416Z,23.20
2022-10-16T21:53:51.789Z,23.85
2022-10-16T21:56:32.065Z,22.20
2022-10-16T21:59:19.718Z,21.17
2022-10-16T22:01:57.204Z,24.15
2022-10-16T22:04:32.190Z,21.80
2022-10-16T22:07:15.545Z,21.65
2022-10-16T22:09:55.398Z,23.30
2022-10-16T22:12:43.050Z,20.33
2022-10-16T22:15:17.920Z,21.05
2022-10-16T22:17:55.653Z,22.80
2022-10-16T22:20:30.738Z,22.48
2022-10-16T22:23:12.434Z,22.00
2022-10-16T22:25:50.400Z,21.83
2022-10-16T22:28:31.650Z,21.25
2022-10-16T22:31:04.906Z,21.20
2022-10-16T22:33:45.204Z,22.45
2022-10-16T22:36:24.145Z,21.05
2022-10-16T22:38:55.804Z,24.63
2022-10-16T22:41:24.809Z,23.65
2022-10-16T22:44:05.921Z,24.67
2022-10-16T22:46:40.724Z,23.67
2022-10-16T22:49:23.623Z,25.58
2022-10-16T22:52:04.019Z,27.33
2022-10-16T22:54:42.024Z,24.05
2022-10-16T22:57:22.005Z,25.30
2022-10-16T22:59:56.371Z,29.02
2022-10-16T23:02:34.103Z,26.40
2022-10-16T23:05:09.758Z,27.75
2022-10-16T23:07:44.691Z,27.08
2022-10-16T23:10:30.673Z,27.05
2022-10-16T23:13:10.991Z,28.73
2022-10-16T23:15:51.762Z,26.98
2022-10-16T23:18:32.049Z,31.20
2022-10-16T23:21:15.489Z,29.95
2022-10-16T23:24:00.703Z,29.60
2022-10-16T23:26:33.219Z,30.85
2022-10-16T23:29:10.699Z,33.08
2022-10-16T23:31:48.062Z,29.77
2022-10-16T23:34:23.362Z,28.73
2022-10-16T23:37:03.743Z,29.42
2022-10-16T23:39:40.980Z,31.75
2022-10-16T23:42:18.100Z,29.63
2022-10-16T23:44:55.397Z,28.52
2022-10-16T23:47:31.268Z,29.50
2022-10-16T23:50:09.320Z,34.33
2022-10-16T23:52:50.400Z,36.35
2022-10-16T23:55:28.640Z,33.22
2022-10-16T23:58:03.529Z,30.95
